Time;durP1;ratioP1;P1;durP2;ratioP2;P2;SDS_P1;SDS_P2;PMS_P1;PMS_P2;Temp;Humidity;BMP_temperature;BMP_pressure;BME280_temperature;BME280_humidity;BME280_pressure;Samples;Min_cycle;Max_cycle;Signal;HPM_P1;HPM_P2
2023/12/29 00:01:48;;;;;;;20.70;15.40;;;4.30;99.90;;;;;;5053383;28;20051;-73
2023/12/29 00:04:13;;;;;;;23.88;15.45;;;4.40;99.90;;;;;;5053141;28;20481;-74
2023/12/29 00:06:40;;;;;;;24.80;16.02;;;4.30;99.90;;;;;;5063720;28;20124;-74
2023/12/29 00:09:05;;;;;;;20.92;14.98;;;4.30;99.90;;;;;;5072839;28;20032;-73
2023/12/29 00:11:32;;;;;;;25.40;14.88;;;4.30;99.90;;;;;;5062896;28;20021;-73
2023/12/29 00:13:57;;;;;;;24.95;15.70;;;4.30;99.90;;;;;;5055316;28;20021;-74
2023/12/29 00:16:23;;;;;;;21.98;15.10;;;4.30;99.90;;;;;;5072389;28;20059;-74
2023/12/29 00:18:48;;;;;;;20.80;14.98;;;4.30;99.90;;;;;;5071310;28;20060;-74
2023/12/29 00:21:14;;;;;;;22.58;15.40;;;4.40;99.90;;;;;;5062041;28;20029;-73
2023/12/29 00:23:40;;;;;;;22.50;15.48;;;4.30;99.90;;;;;;5072224;28;20024;-73
2023/12/29 00:26:05;;;;;;;20.77;14.95;;;4.40;99.90;;;;;;5072715;28;20066;-73
2023/12/29 00:28:31;;;;;;;21.50;15.45;;;4.40;99.90;;;;;;5069029;28;20370;-74
2023/12/29 00:30:57;;;;;;;21.00;15.23;;;4.40;99.90;;;;;;5066551;28;20059;-73
2023/12/29 00:33:22;;;;;;;22.52;15.10;;;4.40;99.90;;;;;;5058988;28;20035;-73
2023/12/29 00:35:48;;;;;;;24.00;16.02;;;4.40;99.90;;;;;;5066655;28;20047;-74
2023/12/29 00:38:13;;;;;;;24.80;16.02;;;4.40;99.90;;;;;;5072556;28;20351;-74
2023/12/29 00:40:39;;;;;;;21.35;14.73;;;4.40;99.90;;;;;;5053384;28;20787;-74
2023/12/29 00:43:05;;;;;;;23.77;15.43;;;4.40;99.90;;;;;;5051177;28;20021;-74
2023/12/29 00:45:35;;;;;;;23.25;15.38;;;4.40;99.90;;;;;;5053971;28;20025;-74
2023/12/29 00:48:02;;;;;;;24.85;17.38;;;4.40;99.90;;;;;;5057404;28;20107;-73
2023/12/29 00:50:28;;;;;;;22.23;15.75;;;4.40;99.90;;;;;;5051478;28;20028;-73
2023/12/29 00:52:54;;;;;;;23.65;15.88;;;4.40;99.90;;;;;;5056903;28;20028;-73
2023/12/29 00:55:20;;;;;;;22.65;15.70;;;4.30;99.90;;;;;;5051919;28;20027;-73
2023/12/29 00:57:45;;;;;;;25.73;15.52;;;4.30;99.90;;;;;;5051204;28;20051;-73
2023/12/29 01:00:12;;;;;;;23.02;15.90;;;4.40;99.90;;;;;;5052139;28;20041;-74
2023/12/29 01:02:39;;;;;;;21.52;15.00;;;4.40;99.90;;;;;;5051408;28;20025;-73
2023/12/29 01:05:05;;;;;;;27.13;16.65;;;4.40;99.90;;;;;;5052194;28;20021;-73
2023/12/29 01:07:31;;;;;;;23.08;16.33;;;4.40;99.90;;;;;;5051386;28;20029;-72
2023/12/29 01:09:57;;;;;;;22.50;15.80;;;4.40;99.90;;;;;;5051910;28;20060;-73
2023/12/29 01:12:23;;;;;;;24.88;16.73;;;4.40;99.90;;;;;;5051539;28;20508;-73
2023/12/29 01:14:49;;;;;;;24.50;15.65;;;4.50;99.90;;;;;;5051069;28;20047;-72
2023/12/29 01:17:15;;;;;;;26.20;16.63;;;4.50;99.90;;;;;;5052017;28;20037;-73
2023/12/29 01:19:41;;;;;;;24.65;16.75;;;4.50;99.90;;;;;;5051798;28;20025;-73
2023/12/29 01:22:06;;;;;;;22.85;15.23;;;4.50;99.90;;;;;;5052247;28;20032;-74
2023/12/29 01:24:32;;;;;;;23.02;15.48;;;4.50;99.90;;;;;;5051823;28;20409;-73
2023/12/29 01:26:57;;;;;;;21.45;15.48;;;4.50;99.90;;;;;;5052192;28;20112;-74
2023/12/29 01:29:23;;;;;;;23.75;15.18;;;4.50;99.90;;;;;;5052372;28;20454;-73
2023/12/29 01:31:49;;;;;;;24.67;16.02;;;4.50;99.90;;;;;;5051922;28;20065;-74
2023/12/29 01:34:14;;;;;;;21.10;15.52;;;4.60;99.90;;;;;;5051739;28;20032;-73
2023/12/29 01:36:40;;;;;;;21.65;15.65;;;4.60;99.90;;;;;;5051584;28;20036;-74
2023/12/29 01:39:05;;;;;;;22.88;16.27;;;4.60;99.90;;;;;;5051684;28;20021;-74
2023/12/29 01:41:31;;;;;;;24.40;16.60;;;4.60;99.90;;;;;;5051844;28;20036;-74
2023/12/29 01:43:56;;;;;;;26.95;17.05;;;4.60;99.90;;;;;;5052057;28;20102;-73
2023/12/29 01:46:27;;;;;;;27.63;17.10;;;4.70;99.90;;;;;;5051649;28;20488;-73
2023/12/29 01:48:54;;;;;;;25.02;17.50;;;4.70;99.90;;;;;;5051996;28;20021;-74
2023/12/29 01:51:23;;;;;;;27.48;17.85;;;4.70;99.90;;;;;;5051797;28;20086;-73
2023/12/29 01:53:50;;;;;;;26.08;17.23;;;4.70;99.90;;;;;;5051539;28;20109;-73
2023/12/29 01:56:16;;;;;;;26.05;16.52;;;4.70;99.90;;;;;;5051591;28;20029;-74
2023/12/29 01:58:44;;;;;;;23.55;16.77;;;4.70;99.90;;;;;;5050996;28;20378;-72
2023/12/29 02:01:10;;;;;;;23.83;17.02;;;4.80;99.90;;;;;;5051795;28;20098;-72
2023/12/29 02:03:36;;;;;;;25.23;17.58;;;4.80;99.90;;;;;;5058819;28;20416;-73
2023/12/29 02:06:02;;;;;;;23.30;15.70;;;4.80;99.90;;;;;;5061842;28;20029;-73
2023/12/29 02:08:29;;;;;;;23.15;17.10;;;4.80;99.90;;;;;;5059687;28;20074;-73
2023/12/29 02:10:55;;;;;;;22.58;16.85;;;4.80;99.90;;;;;;5061923;28;20027;-72
2023/12/29 02:13:22;;;;;;;20.83;16.08;;;4.80;99.90;;;;;;5065719;28;20108;-73
2023/12/29 02:15:50;;;;;;;23.85;16.65;;;4.80;99.90;;;;;;5063556;28;20487;-74
2023/12/29 02:18:18;;;;;;;26.08;18.60;;;4.70;99.90;;;;;;5063802;28;20470;-74
2023/12/29 02:20:44;;;;;;;24.73;18.40;;;4.70;99.90;;;;;;5065505;28;20081;-74
2023/12/29 02:23:10;;;;;;;21.30;16.27;;;4.70;99.90;;;;;;5065643;28;20020;-74
2023/12/29 02:25:36;;;;;;;27.05;17.20;;;4.70;99.90;;;;;;5065220;28;20107;-74
2023/12/29 02:28:22;;;;;;;23.95;16.38;;;4.60;99.90;;;;;;5065363;28;20151;-74
2023/12/29 02:30:54;;;;;;;24.00;17.02;;;4.70;99.90;;;;;;5064394;28;20104;-73
2023/12/29 02:33:22;;;;;;;23.65;16.83;;;4.60;99.90;;;;;;5062141;28;20413;-72
2023/12/29 02:35:51;;;;;;;22.92;16.67;;;4.70;99.90;;;;;;5062641;28;20017;-72
2023/12/29 02:38:17;;;;;;;23.17;15.73;;;4.70;99.90;;;;;;5064720;28;20120;-73
2023/12/29 02:40:43;;;;;;;24.08;15.93;;;4.70;99.90;;;;;;5061698;28;20107;-73
2023/12/29 02:43:09;;;;;;;24.05;15.52;;;4.70;99.90;;;;;;5055183;28;20086;-72
2023/12/29 02:45:35;;;;;;;25.13;15.82;;;4.70;99.90;;;;;;5054524;28;20025;-72
2023/12/29 02:48:01;;;;;;;22.33;15.30;;;4.70;99.90;;;;;;5054586;28;20036;-73
2023/12/29 02:50:26;;;;;;;22.80;15.23;;;4.60;99.90;;;;;;5054394;28;20078;-72
2023/12/29 02:52:52;;;;;;;22.58;15.02;;;4.70;99.90;;;;;;5054153;28;20116;-73
2023/12/29 02:55:18;;;;;;;20.88;14.40;;;4.70;99.90;;;;;;5054315;28;20492;-73
2023/12/29 02:57:44;;;;;;;21.73;14.80;;;4.70;99.90;;;;;;5052095;28;20445;-74
2023/12/29 03:00:10;;;;;;;18.95;14.10;;;4.70;99.90;;;;;;5053841;28;20044;-74
2023/12/29 03:02:36;;;;;;;19.40;13.55;;;4.70;99.90;;;;;;5053705;28;20031;-74
2023/12/29 03:05:02;;;;;;;20.13;13.57;;;4.70;99.90;;;;;;5053109;28;20028;-74
2023/12/29 03:07:27;;;;;;;18.17;12.52;;;4.70;99.90;;;;;;5034105;28;20029;-74
2023/12/29 03:09:53;;;;;;;17.95;12.85;;;4.70;99.90;;;;;;5033732;28;20017;-74
2023/12/29 03:12:19;;;;;;;18.42;13.02;;;4.70;99.90;;;;;;5034304;28;20105;-74
2023/12/29 03:14:44;;;;;;;18.63;13.88;;;4.70;99.90;;;;;;5033378;28;20025;-73
2023/12/29 03:17:11;;;;;;;20.27;13.48;;;4.80;99.90;;;;;;5033986;28;20041;-73
2023/12/29 03:19:37;;;;;;;19.50;13.75;;;4.80;99.90;;;;;;5036605;28;20033;-73
2023/12/29 03:22:02;;;;;;;19.75;13.13;;;4.80;99.90;;;;;;5053907;28;20420;-73
2023/12/29 03:24:29;;;;;;;17.52;12.45;;;4.80;99.90;;;;;;5054145;28;20036;-73
2023/12/29 03:26:55;;;;;;;19.08;14.52;;;4.90;99.90;;;;;;5052891;28;20036;-73
2023/12/29 03:29:20;;;;;;;20.83;13.88;;;4.90;99.90;;;;;;5053583;28;20029;-73
2023/12/29 03:31:46;;;;;;;23.05;14.65;;;4.90;99.90;;;;;;5035395;28;20026;-73
2023/12/29 03:34:12;;;;;;;24.45;15.30;;;4.90;99.90;;;;;;5065959;28;20473;-73
2023/12/29 03:36:37;;;;;;;19.50;14.55;;;4.90;99.90;;;;;;5033104;28;20037;-73
2023/12/29 03:39:04;;;;;;;20.48;13.95;;;5.00;99.90;;;;;;5033761;28;20459;-73
2023/12/29 03:41:30;;;;;;;20.52;13.85;;;5.00;99.90;;;;;;5032214;28;20434;-73
2023/12/29 03:43:56;;;;;;;22.65;14.25;;;5.00;99.90;;;;;;5051464;28;20021;-72
2023/12/29 03:46:22;;;;;;;21.25;13.43;;;5.00;99.90;;;;;;5053247;28;20036;-73
2023/12/29 03:48:48;;;;;;;18.58;12.55;;;5.10;99.90;;;;;;5052947;28;20036;-73
2023/12/29 03:51:15;;;;;;;18.00;12.35;;;5.10;99.90;;;;;;5053027;28;20021;-73
2023/12/29 03:53:41;;;;;;;18.08;12.18;;;5.20;99.90;;;;;;5052168;28;20042;-72
2023/12/29 03:56:08;;;;;;;18.95;12.02;;;5.20;99.90;;;;;;5052271;28;20131;-73
2023/12/29 03:58:35;;;;;;;13.63;10.10;;;5.20;99.90;;;;;;5053234;28;20033;-72
2023/12/29 04:01:00;;;;;;;14.90;9.15;;;5.30;99.90;;;;;;5053227;28;20028;-72
2023/12/29 04:03:26;;;;;;;11.88;7.25;;;5.30;99.90;;;;;;5053157;28;20025;-73
2023/12/29 04:05:52;;;;;;;12.15;7.35;;;5.40;99.90;;;;;;5053055;28;20025;-73
2023/12/29 04:08:17;;;;;;;9.07;5.88;;;5.60;99.90;;;;;;5053023;28;20029;-73
2023/12/29 04:10:43;;;;;;;8.45;5.30;;;5.70;99.90;;;;;;5051923;28;20052;-73
2023/12/29 04:13:09;;;;;;;7.88;5.18;;;5.90;99.90;;;;;;5052591;28;20032;-73
2023/12/29 04:15:34;;;;;;;5.82;4.28;;;6.00;99.90;;;;;;5052790;28;20401;-73
2023/12/29 04:18:00;;;;;;;4.35;3.58;;;6.20;99.90;;;;;;5051910;28;20037;-74
2023/12/29 04:20:26;;;;;;;5.70;3.45;;;6.40;99.90;;;;;;5052604;28;20032;-74
2023/12/29 04:22:52;;;;;;;5.90;3.50;;;6.60;99.90;;;;;;5052138;28;20021;-73
2023/12/29 04:25:18;;;;;;;5.35;3.60;;;6.80;99.90;;;;;;5052613;28;20104;-73
2023/12/29 04:27:43;;;;;;;8.15;3.17;;;6.90;99.90;;;;;;5051809;28;20060;-73
2023/12/29 04:30:10;;;;;;;5.18;3.33;;;7.10;99.90;;;;;;5051996;28;20020;-74
2023/12/29 04:32:35;;;;;;;4.18;2.40;;;7.30;99.90;;;;;;5051550;28;20016;-74
2023/12/29 04:35:01;;;;;;;4.10;2.60;;;7.50;99.90;;;;;;5051919;28;20374;-73
2023/12/29 04:37:27;;;;;;;3.65;2.80;;;7.80;99.90;;;;;;5052367;28;20120;-73
2023/12/29 04:39:53;;;;;;;4.03;2.30;;;7.90;99.90;;;;;;5052004;28;20052;-73
2023/12/29 04:42:18;;;;;;;4.40;2.53;;;8.10;99.90;;;;;;5051993;28;20029;-73
2023/12/29 04:44:44;;;;;;;3.78;2.63;;;8.20;99.40;;;;;;5051738;28;20520;-74
2023/12/29 04:47:10;;;;;;;3.10;2.10;;;8.30;98.70;;;;;;5052371;28;20025;-73
2023/12/29 04:49:35;;;;;;;3.65;2.45;;;8.40;98.40;;;;;;5052116;28;20047;-73
2023/12/29 04:52:01;;;;;;;3.42;2.40;;;8.50;98.00;;;;;;5050853;28;20032;-73
2023/12/29 04:54:27;;;;;;;2.95;1.98;;;8.60;97.70;;;;;;5051996;28;20029;-73
2023/12/29 04:56:53;;;;;;;4.10;2.30;;;8.70;97.10;;;;;;5057486;28;20035;-73
2023/12/29 04:59:18;;;;;;;3.72;2.00;;;8.80;96.70;;;;;;5072207;28;20056;-73
2023/12/29 05:01:44;;;;;;;2.30;1.77;;;8.90;96.30;;;;;;5071941;28;20025;-73
2023/12/29 05:04:10;;;;;;;3.47;2.30;;;9.00;95.90;;;;;;5072380;28;20020;-74
2023/12/29 05:06:35;;;;;;;4.78;2.30;;;9.10;95.20;;;;;;5072435;28;20472;-73
2023/12/29 05:09:01;;;;;;;4.47;2.50;;;9.20;94.90;;;;;;5063090;28;20385;-73
2023/12/29 05:11:27;;;;;;;3.80;2.53;;;9.30;94.70;;;;;;5052681;28;20032;-73
2023/12/29 05:13:52;;;;;;;3.97;2.00;;;9.40;94.40;;;;;;5050061;28;20024;-73
2023/12/29 05:16:18;;;;;;;5.65;1.80;;;9.50;94.20;;;;;;5051876;28;20498;-73
2023/12/29 05:18:44;;;;;;;3.47;2.03;;;9.60;94.00;;;;;;5051779;28;20120;-73
2023/12/29 05:21:16;;;;;;;2.97;2.00;;;9.60;93.80;;;;;;5052209;28;20029;-73
2023/12/29 05:23:43;;;;;;;3.60;2.10;;;9.70;93.70;;;;;;5051879;28;20107;-73
2023/12/29 05:26:09;;;;;;;2.50;1.98;;;9.70;93.60;;;;;;5051433;28;20028;-73
2023/12/29 05:28:34;;;;;;;5.57;2.90;;;9.70;93.50;;;;;;5051765;28;20025;-73
2023/12/29 05:31:03;;;;;;;5.82;2.38;;;9.70;93.40;;;;;;5051052;28;20556;-73
2023/12/29 05:33:30;;;;;;;3.75;1.98;;;9.70;93.40;;;;;;5051715;28;20025;-74
2023/12/29 05:35:56;;;;;;;2.90;2.08;;;9.70;93.40;;;;;;5051408;28;20036;-74
2023/12/29 05:38:21;;;;;;;2.83;1.90;;;9.70;93.50;;;;;;5052053;28;20401;-74
2023/12/29 05:40:47;;;;;;;2.28;1.52;;;9.70;93.50;;;;;;5051280;28;20454;-75
2023/12/29 05:43:12;;;;;;;5.32;2.05;;;9.70;93.50;;;;;;5052640;28;20024;-73
2023/12/29 05:45:38;;;;;;;3.10;1.85;;;9.70;93.60;;;;;;5055560;28;20086;-73
2023/12/29 05:48:04;;;;;;;2.60;1.73;;;9.70;93.50;;;;;;5055517;28;20029;-73
2023/12/29 05:50:30;;;;;;;2.85;1.40;;;9.80;93.40;;;;;;5055507;28;20514;-73
2023/12/29 05:52:55;;;;;;;4.00;1.70;;;9.80;93.30;;;;;;5054460;28;20037;-73
2023/12/29 05:55:21;;;;;;;2.17;1.33;;;9.80;93.10;;;;;;5054750;28;20032;-73
2023/12/29 05:57:46;;;;;;;2.97;1.50;;;9.90;92.80;;;;;;5054812;28;20374;-73
2023/12/29 06:00:14;;;;;;;1.42;1.23;;;9.90;92.60;;;;;;5063152;28;20044;-74
2023/12/29 06:02:41;;;;;;;2.28;1.42;;;10.00;92.20;;;;;;5058787;28;20071;-73
2023/12/29 06:05:07;;;;;;;2.25;1.50;;;10.00;92.10;;;;;;5056533;28;20078;-73
2023/12/29 06:07:33;;;;;;;2.72;1.55;;;10.00;92.00;;;;;;5056973;28;20111;-74
2023/12/29 06:09:59;;;;;;;4.93;2.78;;;9.90;91.90;;;;;;5053322;28;20409;-71
2023/12/29 06:12:25;;;;;;;5.00;3.00;;;9.90;92.00;;;;;;5056476;28;20051;-73
2023/12/29 06:14:50;;;;;;;7.60;3.40;;;9.90;92.10;;;;;;5057703;28;20045;-73
2023/12/29 06:17:16;;;;;;;5.25;3.60;;;9.80;92.30;;;;;;5064601;28;20393;-73
2023/12/29 06:19:41;;;;;;;6.35;4.20;;;9.80;92.20;;;;;;5058462;28;20027;-73
2023/12/29 06:22:11;;;;;;;7.40;5.57;;;9.70;92.10;;;;;;5059141;28;20715;-73
2023/12/29 06:24:37;;;;;;;7.75;6.03;;;9.60;91.90;;;;;;5057173;28;20063;-72
2023/12/29 06:27:03;;;;;;;7.88;5.75;;;9.50;91.60;;;;;;5055280;28;20066;-73
2023/12/29 06:29:29;;;;;;;8.52;5.80;;;9.30;91.50;;;;;;5064636;28;20028;-72
2023/12/29 06:31:54;;;;;;;14.55;6.82;;;9.10;91.50;;;;;;5062913;28;20020;-73
2023/12/29 06:34:20;;;;;;;8.95;6.85;;;8.90;91.50;;;;;;5064018;28;20016;-72
2023/12/29 06:36:46;;;;;;;13.07;6.68;;;8.60;91.90;;;;;;5062948;28;20024;-73
2023/12/29 06:39:11;;;;;;;10.82;6.85;;;8.40;92.70;;;;;;5063208;28;20476;-73
2023/12/29 06:41:37;;;;;;;8.18;6.55;;;8.30;93.30;;;;;;5054927;28;20025;-72
2023/12/29 06:44:03;;;;;;;11.45;6.70;;;8.20;93.70;;;;;;5052862;28;20045;-73
2023/12/29 06:46:29;;;;;;;9.85;6.97;;;8.10;94.00;;;;;;5054947;28;20029;-73
2023/12/29 06:48:54;;;;;;;10.00;7.45;;;8.10;94.30;;;;;;5054527;28;20029;-73
2023/12/29 06:51:22;;;;;;;10.35;6.72;;;8.00;94.40;;;;;;5054862;28;20021;-72
2023/12/29 06:53:48;;;;;;;10.95;7.97;;;7.90;94.30;;;;;;5054662;28;20045;-73
2023/12/29 06:56:17;;;;;;;10.02;7.57;;;7.80;94.30;;;;;;5053150;28;20037;-72
2023/12/29 06:58:44;;;;;;;9.85;7.47;;;7.70;94.70;;;;;;5054549;28;20013;-73
2023/12/29 07:01:10;;;;;;;9.20;6.93;;;7.60;94.80;;;;;;5054357;28;20017;-73
2023/12/29 07:03:36;;;;;;;10.27;7.82;;;7.60;95.00;;;;;;5054641;28;20024;-74
2023/12/29 07:06:02;;;;;;;10.52;7.07;;;7.50;95.10;;;;;;5061869;28;20021;-72
2023/12/29 07:08:28;;;;;;;9.80;7.20;;;7.40;95.00;;;;;;5074152;28;20032;-73
2023/12/29 07:10:53;;;;;;;14.25;7.38;;;7.40;95.00;;;;;;5056832;28;20021;-73
2023/12/29 07:13:19;;;;;;;11.93;7.47;;;7.30;95.10;;;;;;5054373;28;20017;-73
2023/12/29 07:15:46;;;;;;;11.32;7.97;;;7.20;95.30;;;;;;5052690;28;20036;-74
2023/12/29 07:18:12;;;;;;;10.57;6.82;;;7.20;95.50;;;;;;5053468;28;20033;-73
2023/12/29 07:20:37;;;;;;;10.65;7.00;;;7.00;95.70;;;;;;5053506;28;20156;-73
2023/12/29 07:23:03;;;;;;;10.00;6.95;;;6.90;96.10;;;;;;5054109;28;20100;-73
2023/12/29 07:25:29;;;;;;;9.40;6.10;;;6.90;96.60;;;;;;5054177;28;20334;-74
2023/12/29 07:27:54;;;;;;;9.27;6.70;;;6.80;96.90;;;;;;5053704;28;20036;-73
2023/12/29 07:30:20;;;;;;;9.70;6.68;;;6.80;97.20;;;;;;5054062;28;20033;-73
2023/12/29 07:32:46;;;;;;;9.90;6.82;;;6.70;97.40;;;;;;5053675;28;20029;-73
2023/12/29 07:35:15;;;;;;;8.77;6.60;;;6.70;97.70;;;;;;5053637;28;20062;-73
2023/12/29 07:37:40;;;;;;;9.65;6.38;;;6.70;97.90;;;;;;5053918;28;20493;-73
2023/12/29 07:40:07;;;;;;;8.75;6.70;;;6.60;98.00;;;;;;5053471;28;20079;-73
2023/12/29 07:42:33;;;;;;;10.82;7.57;;;6.60;98.30;;;;;;5053749;28;20123;-74
2023/12/29 07:44:59;;;;;;;11.15;6.60;;;6.60;98.50;;;;;;5052058;28;20171;-72
2023/12/29 07:47:24;;;;;;;12.63;7.30;;;6.50;98.80;;;;;;5052640;28;20073;-73
2023/12/29 07:49:50;;;;;;;11.38;6.95;;;6.50;99.30;;;;;;5053534;28;20486;-73
2023/12/29 07:52:16;;;;;;;11.20;7.20;;;6.50;99.40;;;;;;5053019;28;20031;-73
2023/12/29 07:54:41;;;;;;;12.07;7.40;;;6.60;99.50;;;;;;5053321;28;20025;-74
2023/12/29 07:57:07;;;;;;;12.35;7.53;;;6.60;99.60;;;;;;5052584;28;20033;-73
2023/12/29 07:59:33;;;;;;;10.90;7.15;;;6.60;99.80;;;;;;5053251;28;20075;-74
2023/12/29 08:01:59;;;;;;;9.85;6.85;;;6.60;99.80;;;;;;5053093;28;20074;-73
2023/12/29 08:04:24;;;;;;;10.88;6.85;;;6.60;99.90;;;;;;5053429;28;20025;-73
2023/12/29 08:06:50;;;;;;;11.52;7.95;;;6.60;99.80;;;;;;5053161;28;20108;-73
2023/12/29 08:09:15;;;;;;;10.68;7.30;;;6.70;99.90;;;;;;5052763;28;20029;-73
2023/12/29 08:11:42;;;;;;;9.82;7.32;;;6.70;99.90;;;;;;5053071;28;20040;-73
2023/12/29 08:14:08;;;;;;;13.68;7.90;;;6.70;99.90;;;;;;5052891;28;20052;-74
2023/12/29 08:16:40;;;;;;;14.27;7.88;;;6.80;99.90;;;;;;5052979;28;20065;-74
2023/12/29 08:19:06;;;;;;;10.68;7.03;;;6.80;99.90;;;;;;5052674;28;20029;-74
2023/12/29 08:21:32;;;;;;;10.07;7.07;;;6.90;99.90;;;;;;5053187;28;20051;-73
2023/12/29 08:23:58;;;;;;;11.30;7.55;;;6.90;99.90;;;;;;5052341;28;20087;-74
2023/12/29 08:26:23;;;;;;;10.25;7.07;;;6.90;99.90;;;;;;5052744;28;20458;-73
2023/12/29 08:28:49;;;;;;;11.93;7.50;;;7.00;99.90;;;;;;5052352;28;20021;-74
2023/12/29 08:31:16;;;;;;;11.13;7.28;;;7.00;99.90;;;;;;5052579;28;20064;-74
2023/12/29 08:33:41;;;;;;;10.68;6.82;;;7.00;99.90;;;;;;5052989;28;20028;-74
2023/12/29 08:36:07;;;;;;;10.88;7.03;;;7.00;99.90;;;;;;5052414;28;20095;-73
2023/12/29 08:38:33;;;;;;;12.23;7.55;;;7.10;99.90;;;;;;5052845;28;20029;-73
2023/12/29 08:40:59;;;;;;;12.48;7.70;;;7.20;99.90;;;;;;5052641;28;20021;-74
2023/12/29 08:43:26;;;;;;;9.63;6.80;;;7.20;99.90;;;;;;5052651;28;20032;-73
2023/12/29 08:45:51;;;;;;;9.45;7.28;;;7.30;99.90;;;;;;5052658;28;20106;-73
2023/12/29 08:48:17;;;;;;;9.70;6.78;;;7.30;99.90;;;;;;5052529;28;20072;-74
2023/12/29 08:50:43;;;;;;;11.80;7.47;;;7.30;99.90;;;;;;5052621;28;20063;-74
2023/12/29 08:53:09;;;;;;;14.15;8.25;;;7.30;99.90;;;;;;5052197;28;20382;-74
2023/12/29 08:55:34;;;;;;;12.02;8.13;;;7.40;99.50;;;;;;5052353;28;20029;-74
2023/12/29 08:58:01;;;;;;;20.70;8.73;;;7.40;99.20;;;;;;5051793;28;20037;-73
2023/12/29 09:00:26;;;;;;;11.57;7.82;;;7.40;99.00;;;;;;5052515;28;20048;-73
2023/12/29 09:02:52;;;;;;;10.23;7.75;;;7.40;98.70;;;;;;5051961;28;20028;-74
2023/12/29 09:05:18;;;;;;;16.98;8.15;;;7.40;98.60;;;;;;5052216;28;20470;-73
2023/12/29 09:07:43;;;;;;;14.20;7.68;;;7.30;98.60;;;;;;5052376;28;20099;-73
2023/12/29 09:10:12;;;;;;;10.85;7.00;;;7.40;98.70;;;;;;5051659;28;20024;-74
2023/12/29 09:12:38;;;;;;;13.55;8.27;;;7.40;98.70;;;;;;5051852;28;20052;-75
2023/12/29 09:15:05;;;;;;;13.30;7.95;;;7.40;98.70;;;;;;5031949;28;20044;-75
2023/12/29 09:17:31;;;;;;;11.73;8.05;;;7.40;98.60;;;;;;5031610;28;20052;-74
2023/12/29 09:19:56;;;;;;;10.85;7.63;;;7.40;98.60;;;;;;5030817;28;20022;-73
2023/12/29 09:22:22;;;;;;;13.63;7.07;;;7.40;98.60;;;;;;5031879;28;20040;-73
2023/12/29 09:24:47;;;;;;;14.55;7.95;;;7.40;98.70;;;;;;5031934;28;20037;-74
2023/12/29 09:27:13;;;;;;;12.20;7.78;;;7.40;98.50;;;;;;5042014;28;20040;-74
2023/12/29 09:29:40;;;;;;;12.18;7.10;;;7.40;98.40;;;;;;5052110;28;20036;-73
2023/12/29 09:32:06;;;;;;;12.18;6.75;;;7.40;98.30;;;;;;5051486;28;20378;-74
2023/12/29 09:34:31;;;;;;;10.30;7.22;;;7.50;98.30;;;;;;5051996;28;20021;-75
2023/12/29 09:36:57;;;;;;;10.73;6.95;;;7.40;98.30;;;;;;5051972;28;20481;-72
2023/12/29 09:39:23;;;;;;;10.60;6.28;;;7.50;98.30;;;;;;5051687;28;20082;-73
2023/12/29 09:41:52;;;;;;;11.00;6.28;;;7.50;98.20;;;;;;5052020;28;20378;-73
2023/12/29 09:44:20;;;;;;;12.50;6.65;;;7.50;98.10;;;;;;5051524;28;20324;-73
2023/12/29 09:46:50;;;;;;;10.60;6.68;;;7.50;98.30;;;;;;5051651;28;20433;-73
2023/12/29 09:49:18;;;;;;;9.68;5.70;;;7.50;98.20;;;;;;5051535;28;20033;-73
2023/12/29 09:51:44;;;;;;;11.95;6.22;;;7.60;98.20;;;;;;5051697;28;20446;-72
2023/12/29 09:54:10;;;;;;;10.45;6.78;;;7.60;98.00;;;;;;5051439;28;20497;-73
2023/12/29 09:56:37;;;;;;;12.07;6.75;;;7.60;97.90;;;;;;5051732;28;20473;-73
2023/12/29 09:59:04;;;;;;;9.13;6.45;;;7.70;97.90;;;;;;5051759;28;20053;-73
2023/12/29 10:01:31;;;;;;;10.40;6.70;;;7.70;98.00;;;;;;5051676;28;20028;-73
2023/12/29 10:03:57;;;;;;;9.23;6.10;;;7.80;98.20;;;;;;5050489;28;20048;-73
2023/12/29 10:06:26;;;;;;;9.10;6.00;;;7.80;97.80;;;;;;5051448;28;20382;-73
2023/12/29 10:08:55;;;;;;;9.23;5.82;;;7.90;97.90;;;;;;5051473;28;20399;-72
2023/12/29 10:11:22;;;;;;;8.73;5.95;;;8.00;98.10;;;;;;5051245;28;20029;-74
2023/12/29 10:13:50;;;;;;;13.05;6.45;;;8.10;98.00;;;;;;5051665;28;20032;-73
2023/12/29 10:16:32;;;;;;;9.15;6.32;;;8.30;97.70;;;;;;5051198;28;20067;-73
2023/12/29 10:19:39;;;;;;;10.98;6.65;;;8.60;98.10;;;;;;5051778;28;20025;-72
2023/12/29 10:22:21;;;;;;;9.93;6.57;;;8.80;97.70;;;;;;5028304;28;20037;-73
2023/12/29 10:24:47;;;;;;;11.82;6.00;;;9.10;97.50;;;;;;5051737;28;20033;-74
2023/12/29 10:27:13;;;;;;;10.85;6.20;;;9.40;97.30;;;;;;5051010;28;20127;-73
2023/12/29 10:29:39;;;;;;;15.90;6.47;;;9.60;96.70;;;;;;5052915;28;20072;-73
2023/12/29 10:32:05;;;;;;;9.98;6.00;;;9.80;95.70;;;;;;5054932;28;20025;-73
2023/12/29 10:34:34;;;;;;;11.05;6.15;;;10.10;94.90;;;;;;5054226;28;20382;-73
2023/12/29 10:37:03;;;;;;;9.40;5.60;;;10.20;94.60;;;;;;5054646;28;20037;-73
2023/12/29 10:39:29;;;;;;;9.07;5.13;;;10.50;93.90;;;;;;5054659;28;20033;-72
2023/12/29 10:42:08;;;;;;;10.35;5.18;;;10.70;93.40;;;;;;5054954;28;20028;-72
2023/12/29 10:44:35;;;;;;;15.10;5.05;;;10.90;92.70;;;;;;5054630;28;20450;-72
2023/12/29 10:47:14;;;;;;;9.43;5.82;;;11.10;92.20;;;;;;5054814;28;20051;-73
2023/12/29 10:49:40;;;;;;;11.10;5.13;;;11.30;91.50;;;;;;5053413;28;20028;-74
2023/12/29 10:52:16;;;;;;;9.07;4.93;;;11.50;91.10;;;;;;5054863;28;20033;-73
2023/12/29 10:54:42;;;;;;;7.85;4.93;;;11.70;91.20;;;;;;5055031;28;20025;-73
2023/12/29 10:57:10;;;;;;;9.18;5.10;;;11.80;91.30;;;;;;5054630;28;20513;-74
2023/12/29 10:59:36;;;;;;;6.07;4.03;;;12.00;91.60;;;;;;5054546;28;20049;-74
2023/12/29 11:02:03;;;;;;;11.75;4.50;;;12.20;91.30;;;;;;5054652;28;20107;-73
2023/12/29 11:04:29;;;;;;;6.55;4.30;;;12.40;91.40;;;;;;5053991;28;20440;-72
2023/12/29 11:06:54;;;;;;;7.05;4.53;;;12.60;90.70;;;;;;5054561;28;20060;-74
2023/12/29 11:09:30;;;;;;;6.53;4.57;;;12.80;90.00;;;;;;5053727;28;20442;-73
2023/12/29 11:12:02;;;;;;;8.60;4.47;;;13.00;87.90;;;;;;5054004;28;20496;-73
2023/12/29 11:14:30;;;;;;;4.22;2.67;;;13.20;86.50;;;;;;5053762;28;20029;-73
2023/12/29 11:16:58;;;;;;;4.28;2.38;;;13.40;83.30;;;;;;5054152;28;20118;-75
2023/12/29 11:19:24;;;;;;;5.72;1.70;;;13.60;78.40;;;;;;5053775;28;20161;-73
2023/12/29 11:21:55;;;;;;;3.20;1.60;;;13.80;76.00;;;;;;5070794;28;20107;-73
2023/12/29 11:24:22;;;;;;;2.33;1.58;;;14.00;72.90;;;;;;5073969;28;20032;-73
2023/12/29 11:26:49;;;;;;;3.00;1.20;;;14.30;70.70;;;;;;5074025;28;20032;-72
2023/12/29 11:29:16;;;;;;;2.00;1.10;;;14.50;68.80;;;;;;5073397;28;20456;-73
2023/12/29 11:31:45;;;;;;;8.50;3.08;;;14.80;66.60;;;;;;5073756;28;20017;-73
2023/12/29 11:34:23;;;;;;;8.55;3.55;;;14.90;66.70;;;;;;5062276;28;20036;-73
2023/12/29 11:36:57;;;;;;;6.38;3.78;;;15.00;68.50;;;;;;5053642;28;20033;-73
2023/12/29 11:39:57;;;;;;;5.45;3.22;;;15.00;69.10;;;;;;5053357;28;20037;-74
2023/12/29 11:42:31;;;;;;;4.45;2.30;;;15.00;69.80;;;;;;5052820;28;20116;-73
2023/12/29 11:44:57;;;;;;;5.25;1.80;;;15.00;69.10;;;;;;5053797;28;20036;-74
2023/12/29 11:47:36;;;;;;;4.18;1.50;;;15.10;67.70;;;;;;5053365;28;20029;-73
2023/12/29 11:50:02;;;;;;;1.92;1.50;;;15.20;65.50;;;;;;5053672;28;20083;-72
2023/12/29 11:52:35;;;;;;;1.77;1.50;;;15.30;64.80;;;;;;5053217;28;20095;-73
2023/12/29 11:55:10;;;;;;;1.92;1.48;;;15.40;64.90;;;;;;5053580;28;20049;-73
2023/12/29 11:57:36;;;;;;;2.03;1.55;;;15.50;65.20;;;;;;5052824;28;20397;-73
2023/12/29 12:00:05;;;;;;;3.53;1.15;;;15.50;63.60;;;;;;5053005;28;20124;-73
2023/12/29 12:02:32;;;;;;;2.10;1.30;;;15.60;61.10;;;;;;5053314;28;20037;-73
2023/12/29 12:04:58;;;;;;;1.25;1.00;;;15.70;59.80;;;;;;5053312;28;20086;-74
2023/12/29 12:07:27;;;;;;;2.28;1.30;;;15.70;58.90;;;;;;5052667;28;20028;-73
2023/12/29 12:10:30;;;;;;;3.33;1.30;;;15.80;58.00;;;;;;5052777;28;20025;-74
2023/12/29 12:12:58;;;;;;;1.92;1.30;;;15.80;57.70;;;;;;5052990;28;20114;-73
2023/12/29 12:15:32;;;;;;;1.40;1.27;;;15.80;57.00;;;;;;5052632;28;20025;-73
2023/12/29 12:18:07;;;;;;;3.10;1.10;;;15.90;56.70;;;;;;5051579;28;20389;-74
2023/12/29 12:20:33;;;;;;;3.55;1.20;;;15.80;56.20;;;;;;5052500;28;20048;-73
2023/12/29 12:23:20;;;;;;;1.55;1.10;;;15.80;55.60;;;;;;5052524;28;20334;-73
2023/12/29 12:25:46;;;;;;;1.92;1.20;;;15.80;55.50;;;;;;5050394;28;20029;-74
2023/12/29 12:28:14;;;;;;;1.63;0.98;;;15.80;55.10;;;;;;5052273;28;20060;-74
2023/12/29 12:30:40;;;;;;;1.80;1.15;;;15.70;55.10;;;;;;5052061;28;20021;-73
2023/12/29 12:33:06;;;;;;;1.25;1.15;;;15.60;55.20;;;;;;5052597;28;20412;-73
2023/12/29 12:35:32;;;;;;;2.65;1.10;;;15.50;55.10;;;;;;5052340;28;20040;-74
2023/12/29 12:38:14;;;;;;;2.22;1.20;;;15.40;55.40;;;;;;5052705;28;20458;-73
2023/12/29 12:40:40;;;;;;;1.30;1.10;;;15.40;55.90;;;;;;5051039;28;20377;-73
2023/12/29 12:43:06;;;;;;;2.05;1.02;;;15.30;56.10;;;;;;5042831;28;20039;-73
2023/12/29 12:45:42;;;;;;;1.63;1.35;;;15.30;56.00;;;;;;5052176;28;20028;-73